Time;durP1;ratioP1;P1;durP2;ratioP2;P2;SDS_P1;SDS_P2;PMS_P1;PMS_P2;Temp;Humidity;BMP_temperature;BMP_pressure;BME280_temperature;BME280_humidity;BME280_pressure;Samples;Min_cycle;Max_cycle;Signal;HPM_P1;HPM_P2
2022/01/28 00:01:06;;;;;;;1.13;1.10;;;4.20;98.00;;;;;;5113789;28;20530;-68
2022/01/28 00:03:34;;;;;;;1.10;1.00;;;4.20;98.00;;;;;;5113527;28;20547;-69
2022/01/28 00:06:01;;;;;;;1.10;1.00;;;4.30;98.00;;;;;;5113755;28;20458;-69
2022/01/28 00:08:28;;;;;;;1.10;1.00;;;4.30;98.00;;;;;;5113782;28;20805;-68
2022/01/28 00:10:57;;;;;;;1.30;1.30;;;4.30;98.00;;;;;;5113426;28;20503;-70
2022/01/28 00:13:30;;;;;;;1.10;0.90;;;4.30;98.00;;;;;;5113642;28;20511;-70
2022/01/28 00:16:29;;;;;;;1.87;1.30;;;4.30;98.00;;;;;;5113563;28;20943;-68
2022/01/28 00:19:26;;;;;;;3.30;1.60;;;4.20;98.00;;;;;;5113735;28;20459;-68
2022/01/28 00:38:29;;;;;;;1.10;1.00;;;3.90;98.00;;;;;;5113205;28;20523;-69
2022/01/28 00:40:56;;;;;;;1.30;1.17;;;3.90;98.00;;;;;;5112897;28;20542;-68
2022/01/28 00:43:25;;;;;;;1.20;1.20;;;3.90;98.00;;;;;;5112852;28;20570;-68
2022/01/28 00:45:53;;;;;;;1.10;1.00;;;3.90;98.00;;;;;;5112312;28;20537;-69
2022/01/28 00:48:20;;;;;;;1.10;1.00;;;3.90;98.00;;;;;;5113031;28;20489;-68
2022/01/28 00:50:47;;;;;;;1.10;0.90;;;3.90;98.00;;;;;;5112611;28;20893;-68
2022/01/28 00:53:14;;;;;;;1.10;1.00;;;3.90;98.00;;;;;;5112655;28;20529;-68
2022/01/28 00:55:41;;;;;;;1.13;1.10;;;3.90;98.00;;;;;;5112681;28;20490;-69
2022/01/28 00:58:09;;;;;;;1.20;1.20;;;4.10;98.00;;;;;;5112697;28;20494;-68
2022/01/28 01:00:37;;;;;;;1.20;1.17;;;4.20;98.00;;;;;;5112729;28;20537;-68
2022/01/28 01:03:06;;;;;;;1.10;1.10;;;4.20;98.00;;;;;;5112347;28;20515;-68
2022/01/28 01:05:34;;;;;;;1.10;0.90;;;4.30;98.00;;;;;;5112428;28;20998;-68
2022/01/28 01:08:01;;;;;;;1.10;1.10;;;4.40;98.00;;;;;;5094184;28;20455;-68
2022/01/28 01:10:29;;;;;;;1.57;1.23;;;4.30;98.00;;;;;;5112451;28;20498;-69
2022/01/28 01:12:56;;;;;;;1.10;1.00;;;4.20;98.00;;;;;;5112440;28;20514;-70
2022/01/28 01:15:28;;;;;;;1.10;1.07;;;4.30;98.00;;;;;;5112576;28;20447;-68
2022/01/28 01:18:00;;;;;;;1.10;0.90;;;4.20;98.00;;;;;;5112482;28;20528;-68
2022/01/28 01:20:54;;;;;;;1.10;1.00;;;4.30;98.00;;;;;;5112288;28;20925;-68
2022/01/28 01:23:27;;;;;;;1.10;0.90;;;4.30;98.00;;;;;;5112322;28;20551;-68
2022/01/28 01:25:59;;;;;;;1.30;1.27;;;4.30;98.00;;;;;;5112446;28;20447;-69
2022/01/28 01:28:31;;;;;;;1.10;1.03;;;4.30;98.00;;;;;;5112464;28;20454;-68
2022/01/28 01:30:59;;;;;;;1.13;1.13;;;4.40;98.00;;;;;;5112210;28;20800;-69
2022/01/28 01:33:29;;;;;;;1.47;1.10;;;4.40;98.00;;;;;;5112457;28;20470;-68
2022/01/28 01:35:59;;;;;;;1.10;0.90;;;4.40;98.00;;;;;;5112028;28;20455;-68
2022/01/28 01:38:28;;;;;;;1.73;1.63;;;4.40;98.00;;;;;;5112372;28;20487;-68
2022/01/28 01:40:57;;;;;;;1.10;0.90;;;4.40;98.00;;;;;;5112301;28;20475;-68
2022/01/28 01:43:39;;;;;;;1.17;1.10;;;4.40;98.00;;;;;;5112345;28;20565;-69
2022/01/28 01:46:17;;;;;;;1.20;1.20;;;4.50;98.00;;;;;;5100235;28;20511;-69
2022/01/28 01:54:25;;;;;;;1.40;1.20;;;4.50;98.00;;;;;;5090921;28;20534;-69
2022/01/28 01:56:53;;;;;;;1.10;1.00;;;4.50;98.00;;;;;;5116127;28;20868;-68
2022/01/28 01:59:20;;;;;;;1.10;0.90;;;4.60;98.00;;;;;;5116046;28;20509;-67
2022/01/28 02:01:47;;;;;;;1.10;1.00;;;4.60;98.00;;;;;;5116078;28;20877;-68
2022/01/28 02:04:14;;;;;;;1.20;1.07;;;4.50;98.00;;;;;;5116045;28;21039;-68
2022/01/28 02:06:43;;;;;;;1.20;1.10;;;4.60;98.00;;;;;;5115984;28;20458;-68
2022/01/28 02:09:10;;;;;;;1.10;1.00;;;4.60;98.00;;;;;;5115909;28;20490;-68
2022/01/28 02:11:41;;;;;;;1.87;1.37;;;4.60;98.00;;;;;;5115830;28;20546;-68
2022/01/28 02:14:08;;;;;;;1.10;1.03;;;4.70;98.00;;;;;;5115949;28;20447;-68
2022/01/28 02:16:36;;;;;;;1.87;1.83;;;4.70;98.00;;;;;;5115588;28;20487;-70
2022/01/28 02:19:03;;;;;;;2.07;1.90;;;4.70;98.00;;;;;;5115787;28;20529;-68
2022/01/28 02:21:40;;;;;;;1.10;1.00;;;4.70;98.00;;;;;;5115663;28;20498;-69
2022/01/28 02:24:09;;;;;;;1.27;1.23;;;4.70;98.00;;;;;;5115521;28;20483;-68
2022/01/28 02:26:37;;;;;;;1.10;0.97;;;4.60;98.00;;;;;;5115337;28;20452;-68
2022/01/28 02:29:09;;;;;;;1.10;0.93;;;4.60;98.00;;;;;;5115891;28;20454;-68
2022/01/28 02:31:37;;;;;;;1.10;1.00;;;4.40;98.00;;;;;;5115585;28;20965;-67
2022/01/28 02:34:06;;;;;;;1.10;1.00;;;4.40;98.00;;;;;;5115481;28;20447;-68
2022/01/28 02:36:34;;;;;;;1.40;1.30;;;4.40;98.00;;;;;;5115338;28;20854;-68
2022/01/28 02:39:02;;;;;;;1.40;1.20;;;4.30;98.00;;;;;;5115452;28;20486;-68
2022/01/28 02:41:33;;;;;;;1.10;1.00;;;4.20;98.00;;;;;;5115354;28;20457;-68
2022/01/28 02:44:13;;;;;;;1.83;1.33;;;4.20;98.00;;;;;;5115326;28;20485;-68
2022/01/28 02:46:52;;;;;;;1.20;1.20;;;4.20;98.00;;;;;;5115230;28;20455;-68
2022/01/28 02:49:19;;;;;;;1.20;1.20;;;4.20;98.00;;;;;;5115278;28;20451;-69
2022/01/28 02:51:48;;;;;;;1.30;1.17;;;4.00;98.00;;;;;;5115306;28;20802;-69
2022/01/28 02:54:17;;;;;;;1.10;1.10;;;3.90;98.00;;;;;;5115269;28;20500;-68
2022/01/28 02:56:49;;;;;;;1.10;1.00;;;4.00;98.00;;;;;;5114024;28;20809;-68
2022/01/28 02:59:16;;;;;;;1.43;1.33;;;4.00;98.00;;;;;;5114399;28;20512;-69
2022/01/28 03:01:43;;;;;;;1.50;1.40;;;4.00;98.00;;;;;;5114359;28;20476;-68
2022/01/28 03:04:24;;;;;;;1.10;1.00;;;4.00;98.00;;;;;;5114982;28;20562;-70
2022/01/28 03:06:52;;;;;;;1.10;1.10;;;4.00;98.00;;;;;;5115155;28;20457;-67
2022/01/28 03:09:21;;;;;;;1.10;0.93;;;3.90;98.00;;;;;;5115203;28;20455;-68
2022/01/28 03:11:59;;;;;;;1.37;1.30;;;3.80;98.00;;;;;;5115027;28;20456;-69
2022/01/28 03:14:37;;;;;;;1.50;1.40;;;3.90;98.00;;;;;;5115039;28;20469;-67
2022/01/28 03:17:12;;;;;;;1.20;1.20;;;3.90;98.00;;;;;;5114528;28;20863;-68
2022/01/28 03:19:50;;;;;;;1.77;1.30;;;3.90;98.00;;;;;;5114825;28;20456;-68
2022/01/28 03:22:18;;;;;;;2.40;1.87;;;3.80;98.00;;;;;;5114466;28;20815;-67
2022/01/28 03:24:50;;;;;;;1.10;1.03;;;3.80;98.00;;;;;;5114382;28;20536;-69
2022/01/28 03:27:31;;;;;;;1.20;1.10;;;3.80;98.00;;;;;;5114297;28;20460;-68
2022/01/28 03:29:58;;;;;;;1.20;1.10;;;3.90;98.00;;;;;;5114550;28;20447;-68
2022/01/28 03:32:25;;;;;;;1.23;1.10;;;3.80;98.00;;;;;;5114184;28;20493;-68
2022/01/28 03:34:52;;;;;;;1.37;1.27;;;3.90;98.00;;;;;;5114273;28;20554;-68
2022/01/28 03:37:21;;;;;;;1.47;1.37;;;3.90;98.00;;;;;;5114249;28;20991;-68
2022/01/28 03:39:48;;;;;;;1.10;1.00;;;3.90;98.00;;;;;;5114250;28;20479;-68
2022/01/28 03:42:17;;;;;;;1.20;1.10;;;3.80;98.00;;;;;;5114196;28;20486;-70
2022/01/28 03:44:44;;;;;;;1.10;1.00;;;3.80;98.00;;;;;;5114090;28;20565;-68
2022/01/28 03:47:14;;;;;;;1.10;1.00;;;3.70;98.00;;;;;;5113935;28;20495;-69
2022/01/28 03:49:41;;;;;;;1.10;1.10;;;3.80;98.00;;;;;;5114093;28;20527;-67
2022/01/28 03:52:09;;;;;;;1.20;1.17;;;3.80;98.00;;;;;;5113628;28;20523;-68
2022/01/28 03:54:37;;;;;;;1.20;1.10;;;3.80;98.00;;;;;;5114169;28;20487;-68
2022/01/28 03:57:07;;;;;;;1.10;1.00;;;3.80;98.00;;;;;;5113880;28;20534;-68
2022/01/28 03:59:35;;;;;;;1.20;1.20;;;3.80;98.00;;;;;;5114054;28;20473;-68
2022/01/28 04:02:04;;;;;;;1.10;1.10;;;3.90;98.00;;;;;;5113383;28;20490;-68
2022/01/28 04:05:45;;;;;;;1.10;1.03;;;3.90;98.00;;;;;;5113882;28;20486;-68
2022/01/28 04:13:35;;;;;;;1.10;1.00;;;3.80;98.00;;;;;;5070749;28;20526;-68
2022/01/28 04:16:27;;;;;;;1.43;1.40;;;3.80;98.00;;;;;;5094645;28;20493;-68
2022/01/28 04:18:52;;;;;;;1.10;0.90;;;3.90;98.00;;;;;;5113359;28;20454;-68
2022/01/28 04:21:19;;;;;;;1.40;1.30;;;3.90;98.00;;;;;;5113338;28;20447;-67
2022/01/28 04:23:46;;;;;;;1.10;1.10;;;3.90;98.00;;;;;;5113689;28;20514;-68
2022/01/28 04:26:15;;;;;;;1.10;0.90;;;3.90;98.00;;;;;;5113317;28;20483;-67
2022/01/28 04:28:41;;;;;;;1.73;1.53;;;3.90;98.00;;;;;;5113477;28;20505;-68
2022/01/28 04:31:08;;;;;;;1.10;1.00;;;3.90;98.00;;;;;;5113420;28;20487;-68
2022/01/28 04:33:35;;;;;;;1.10;0.90;;;3.90;98.00;;;;;;5113211;28;20493;-68
2022/01/28 04:36:03;;;;;;;2.10;1.77;;;3.90;98.00;;;;;;5113170;28;20459;-67
2022/01/28 04:38:37;;;;;;;1.10;1.00;;;3.90;98.00;;;;;;5113390;28;20451;-68
2022/01/28 04:41:11;;;;;;;1.10;1.00;;;3.90;98.00;;;;;;5112911;28;20450;-67
2022/01/28 04:43:45;;;;;;;1.10;1.00;;;3.90;98.00;;;;;;5112940;28;20479;-68
2022/01/28 04:46:22;;;;;;;1.10;0.97;;;4.00;98.00;;;;;;5112890;28;20606;-68
2022/01/28 04:48:56;;;;;;;1.20;1.10;;;4.00;98.00;;;;;;5112757;28;20541;-69
2022/01/28 04:51:41;;;;;;;1.10;0.90;;;4.10;98.00;;;;;;5112656;28;20491;-68
2022/01/28 04:54:22;;;;;;;1.10;1.00;;;4.10;98.00;;;;;;5112521;28;20936;-67
2022/01/28 04:56:58;;;;;;;1.10;0.90;;;4.00;98.00;;;;;;5112755;28;20474;-67
2022/01/28 04:59:42;;;;;;;5.90;3.20;;;4.00;98.00;;;;;;5112415;28;20454;-68
2022/01/28 05:02:29;;;;;;;1.10;0.90;;;4.00;98.00;;;;;;5112650;28;20496;-68
2022/01/28 05:05:16;;;;;;;1.10;0.90;;;4.00;98.00;;;;;;5112638;28;20562;-67
2022/01/28 05:08:00;;;;;;;1.10;1.10;;;3.90;98.00;;;;;;5112618;28;20447;-68
2022/01/28 05:13:52;;;;;;;1.73;1.73;;;4.00;98.00;;;;;;5069571;28;20445;-68
2022/01/28 05:27:10;;;;;;;1.20;1.20;;;3.90;98.00;;;;;;5077514;28;20545;-68
2022/01/28 05:29:39;;;;;;;1.87;1.40;;;3.90;98.00;;;;;;5112263;28;20546;-68
2022/01/28 05:32:09;;;;;;;1.10;1.00;;;3.80;98.00;;;;;;5112314;28;20484;-68
2022/01/28 05:34:36;;;;;;;1.10;1.10;;;3.70;98.00;;;;;;5112276;28;20880;-69
2022/01/28 05:37:04;;;;;;;2.17;1.67;;;3.60;98.00;;;;;;5112103;28;20580;-68
2022/01/28 05:39:31;;;;;;;1.43;1.33;;;3.60;98.00;;;;;;5112302;28;20492;-69
2022/01/28 05:41:58;;;;;;;4.90;2.17;;;3.60;98.00;;;;;;5112110;28;20466;-67
2022/01/28 05:44:27;;;;;;;1.10;0.90;;;3.60;98.00;;;;;;5112258;28;20569;-68
2022/01/28 05:46:56;;;;;;;1.10;1.03;;;3.50;98.00;;;;;;5112158;28;20474;-67
2022/01/28 05:49:24;;;;;;;1.40;1.30;;;3.50;98.00;;;;;;5112212;28;20453;-68
2022/01/28 05:51:51;;;;;;;1.73;1.73;;;3.50;98.00;;;;;;5112145;28;20503;-68
2022/01/28 05:54:18;;;;;;;1.37;1.17;;;3.50;98.00;;;;;;5112404;28;20516;-68
2022/01/28 05:56:45;;;;;;;1.57;1.43;;;3.40;98.00;;;;;;5112262;28;20540;-68
2022/01/28 05:59:12;;;;;;;1.70;1.60;;;3.40;98.00;;;;;;5111900;28;20537;-69
2022/01/28 06:01:39;;;;;;;1.20;1.10;;;3.40;98.00;;;;;;5112205;28;20494;-68
2022/01/28 06:04:06;;;;;;;1.30;1.13;;;3.40;98.00;;;;;;5111851;28;20917;-69
2022/01/28 06:06:35;;;;;;;1.43;1.13;;;3.40;98.00;;;;;;5111770;28;20462;-68
2022/01/28 06:09:03;;;;;;;1.60;1.40;;;3.40;98.00;;;;;;5112009;28;20458;-68
2022/01/28 06:11:30;;;;;;;1.20;1.10;;;3.40;98.00;;;;;;5111966;28;20503;-68
2022/01/28 06:13:57;;;;;;;1.10;1.00;;;3.40;98.00;;;;;;5111661;28;20977;-68
2022/01/28 06:16:24;;;;;;;1.20;1.17;;;3.40;98.00;;;;;;5111678;28;20540;-68
2022/01/28 06:18:54;;;;;;;2.07;1.30;;;3.30;98.00;;;;;;5111928;28;20455;-68
2022/01/28 06:21:21;;;;;;;1.10;1.00;;;3.40;98.00;;;;;;5111478;28;20451;-68
2022/01/28 06:23:57;;;;;;;3.03;2.33;;;3.30;98.00;;;;;;5111710;28;20513;-70
2022/01/28 06:26:24;;;;;;;1.10;1.00;;;3.20;98.00;;;;;;5111690;28;20475;-67
2022/01/28 06:28:53;;;;;;;1.37;1.20;;;3.20;98.00;;;;;;5111634;28;20502;-68
2022/01/28 06:31:20;;;;;;;1.10;1.00;;;3.20;98.00;;;;;;5113811;27;21015;-68
2022/01/28 06:33:47;;;;;;;1.97;1.10;;;3.30;98.00;;;;;;5115556;28;20542;-69
2022/01/28 06:36:15;;;;;;;1.10;1.10;;;3.20;98.00;;;;;;5115423;28;20459;-68
2022/01/28 06:38:42;;;;;;;1.10;1.10;;;3.20;98.00;;;;;;5115473;28;20459;-69
2022/01/28 06:41:10;;;;;;;1.10;1.10;;;3.00;98.00;;;;;;5115389;28;20512;-67
2022/01/28 06:43:37;;;;;;;1.10;1.00;;;3.00;98.00;;;;;;5115265;28;20550;-69
2022/01/28 06:46:04;;;;;;;1.10;0.93;;;3.00;98.00;;;;;;5115204;28;21106;-68
2022/01/28 06:48:31;;;;;;;2.13;1.63;;;3.20;98.00;;;;;;5097360;28;20546;-67
2022/01/28 06:50:58;;;;;;;1.50;1.30;;;3.30;98.00;;;;;;5115154;28;20494;-68
2022/01/28 06:53:25;;;;;;;1.50;1.50;;;3.40;98.00;;;;;;5115323;28;20540;-67
2022/01/28 06:55:52;;;;;;;1.20;1.17;;;3.40;98.00;;;;;;5115150;28;20979;-68
2022/01/28 06:58:21;;;;;;;1.40;1.37;;;3.30;98.00;;;;;;5115100;28;20479;-69
2022/01/28 07:00:47;;;;;;;1.10;1.00;;;3.30;98.00;;;;;;5115128;28;20521;-67
2022/01/28 07:03:15;;;;;;;1.10;1.00;;;3.40;98.00;;;;;;5115225;28;20904;-68
2022/01/28 07:05:42;;;;;;;1.20;1.20;;;3.40;98.00;;;;;;5114987;28;20487;-69
2022/01/28 07:08:10;;;;;;;1.30;1.27;;;3.40;98.00;;;;;;5115017;28;20534;-68
2022/01/28 07:10:37;;;;;;;1.10;1.10;;;3.40;98.00;;;;;;5115008;28;20643;-69
2022/01/28 07:13:04;;;;;;;1.10;1.07;;;3.30;98.00;;;;;;5115243;28;20474;-69
2022/01/28 07:15:33;;;;;;;1.10;1.00;;;3.40;98.00;;;;;;5115054;28;20486;-68
2022/01/28 07:18:02;;;;;;;2.13;1.50;;;3.40;98.00;;;;;;5114898;28;20495;-70
2022/01/28 07:20:30;;;;;;;1.50;1.40;;;3.40;98.00;;;;;;5115247;28;20458;-69
2022/01/28 07:22:57;;;;;;;1.10;1.00;;;3.40;98.00;;;;;;5114658;28;20454;-69
2022/01/28 07:25:24;;;;;;;1.10;1.00;;;3.30;98.00;;;;;;5114675;28;20890;-68
2022/01/28 07:27:51;;;;;;;1.10;1.10;;;3.30;98.00;;;;;;5114519;28;21273;-68
2022/01/28 07:30:18;;;;;;;1.10;1.00;;;3.30;98.00;;;;;;5114408;28;21032;-67
2022/01/28 07:32:49;;;;;;;1.10;1.00;;;3.30;98.00;;;;;;5114517;28;20455;-68
2022/01/28 07:35:16;;;;;;;2.20;2.07;;;3.40;98.00;;;;;;5114419;28;20506;-68
2022/01/28 07:37:43;;;;;;;1.10;1.00;;;3.40;98.00;;;;;;5113991;28;20540;-68
2022/01/28 07:40:11;;;;;;;1.23;1.20;;;3.40;98.00;;;;;;5114312;28;20519;-69
2022/01/28 07:42:39;;;;;;;1.20;1.10;;;3.50;98.00;;;;;;5112837;28;20483;-68
2022/01/28 07:45:08;;;;;;;1.10;0.90;;;3.60;98.00;;;;;;5113984;28;20518;-68
2022/01/28 07:47:36;;;;;;;1.10;1.00;;;3.70;98.00;;;;;;5113785;28;20451;-69
2022/01/28 07:50:06;;;;;;;1.10;1.00;;;3.70;98.00;;;;;;5114023;28;20481;-69
2022/01/28 07:52:33;;;;;;;2.33;2.13;;;3.70;98.00;;;;;;5113428;28;20495;-70
2022/01/28 07:55:01;;;;;;;1.10;1.00;;;3.70;98.00;;;;;;5113344;28;20996;-70
2022/01/28 07:57:28;;;;;;;1.77;1.30;;;3.70;98.00;;;;;;5112548;28;20509;-66
2022/01/28 07:59:56;;;;;;;1.53;1.30;;;3.70;98.00;;;;;;5113291;28;20451;-67
2022/01/28 08:02:23;;;;;;;1.30;1.20;;;3.80;98.00;;;;;;5113872;28;20504;-68
2022/01/28 08:04:50;;;;;;;1.83;1.50;;;4.00;98.00;;;;;;5095530;28;20518;-69
2022/01/28 08:07:18;;;;;;;1.40;1.30;;;3.90;98.00;;;;;;5095583;28;20494;-69
2022/01/28 08:09:46;;;;;;;1.70;1.40;;;3.80;98.00;;;;;;5113759;28;21083;-69
2022/01/28 08:12:13;;;;;;;1.50;1.40;;;3.80;98.00;;;;;;5113613;28;20537;-68
2022/01/28 08:14:40;;;;;;;1.10;1.10;;;3.80;98.00;;;;;;5113583;28;20471;-68
2022/01/28 08:17:07;;;;;;;1.10;1.00;;;4.00;98.00;;;;;;5113484;28;20487;-69
2022/01/28 08:19:34;;;;;;;1.33;1.30;;;4.10;98.00;;;;;;5095760;28;20524;-69
2022/01/28 08:22:01;;;;;;;1.10;1.10;;;4.10;98.00;;;;;;5095434;28;20489;-68
2022/01/28 08:24:30;;;;;;;1.10;1.00;;;4.00;98.00;;;;;;5113406;28;20997;-67
2022/01/28 08:26:57;;;;;;;2.00;1.87;;;4.00;98.00;;;;;;5113416;28;20471;-68
2022/01/28 08:29:24;;;;;;;1.50;1.40;;;4.00;98.00;;;;;;5113629;28;20486;-69
2022/01/28 08:31:51;;;;;;;1.10;1.10;;;3.90;98.00;;;;;;5113254;28;20501;-68
2022/01/28 08:34:18;;;;;;;1.27;1.23;;;3.90;98.00;;;;;;5113349;28;20455;-68
2022/01/28 08:36:45;;;;;;;1.20;1.10;;;4.00;98.00;;;;;;5113345;28;20917;-68
2022/01/28 08:39:14;;;;;;;1.57;1.50;;;4.00;98.00;;;;;;5113302;28;20808;-67
2022/01/28 08:41:43;;;;;;;1.10;1.10;;;4.10;98.00;;;;;;5102874;28;20453;-67
2022/01/28 08:44:11;;;;;;;1.10;1.10;;;4.10;98.00;;;;;;5107705;28;20956;-69
2022/01/28 08:46:38;;;;;;;1.10;1.10;;;4.20;98.00;;;;;;5109997;28;20540;-69
2022/01/28 08:49:05;;;;;;;1.10;0.90;;;4.20;98.00;;;;;;5110403;28;20529;-69
2022/01/28 08:51:32;;;;;;;1.20;1.10;;;4.40;98.00;;;;;;5108323;28;20513;-68
2022/01/28 08:53:59;;;;;;;1.20;1.20;;;4.40;98.00;;;;;;5109557;28;20534;-67
2022/01/28 08:56:26;;;;;;;1.10;0.90;;;4.60;98.00;;;;;;5109768;28;20546;-67
2022/01/28 08:58:54;;;;;;;1.10;1.00;;;4.70;98.00;;;;;;5110087;28;20949;-67
2022/01/28 09:01:22;;;;;;;1.10;0.93;;;4.70;98.00;;;;;;5109855;28;20601;-66
2022/01/28 09:03:49;;;;;;;1.27;1.20;;;4.70;98.00;;;;;;5099731;28;20977;-67
2022/01/28 09:06:17;;;;;;;1.10;0.90;;;4.70;98.00;;;;;;5097319;28;20487;-67
2022/01/28 09:08:49;;;;;;;1.10;1.00;;;4.70;98.00;;;;;;5109653;28;20508;-67
2022/01/28 09:11:46;;;;;;;3.60;1.83;;;4.80;98.00;;;;;;5109741;28;20454;-68
2022/01/28 09:14:15;;;;;;;1.10;1.10;;;4.80;98.00;;;;;;5093134;28;20458;-68
2022/01/28 09:16:43;;;;;;;1.10;1.00;;;5.00;98.00;;;;;;5109624;28;20482;-67
2022/01/28 09:19:10;;;;;;;1.20;1.20;;;5.00;98.00;;;;;;5092996;28;20494;-67
2022/01/28 09:21:38;;;;;;;1.10;1.10;;;5.10;98.00;;;;;;5109774;28;20557;-68
2022/01/28 09:24:05;;;;;;;1.20;1.20;;;5.10;98.00;;;;;;5109636;28;20520;-68
2022/01/28 09:26:34;;;;;;;1.10;1.00;;;5.20;98.00;;;;;;5109836;28;20522;-67
2022/01/28 09:29:00;;;;;;;1.20;1.10;;;5.30;98.00;;;;;;5109615;28;20479;-69
2022/01/28 09:31:33;;;;;;;1.43;1.33;;;5.20;98.00;;;;;;5109246;28;20556;-69
2022/01/28 09:34:01;;;;;;;1.10;0.90;;;5.30;98.00;;;;;;5091194;28;20550;-67
2022/01/28 09:36:28;;;;;;;1.10;1.00;;;5.20;98.00;;;;;;5109786;28;20454;-71
2022/01/28 09:38:55;;;;;;;1.10;1.00;;;5.30;98.00;;;;;;5109362;28;20867;-70
2022/01/28 09:41:22;;;;;;;1.20;1.20;;;5.30;98.00;;;;;;5109904;28;20543;-67
2022/01/28 09:43:50;;;;;;;1.30;1.17;;;5.30;98.00;;;;;;5109628;28;20480;-68
2022/01/28 09:46:17;;;;;;;1.20;1.20;;;5.20;98.00;;;;;;5109577;28;20832;-67
2022/01/28 09:48:46;;;;;;;1.10;0.93;;;5.20;98.00;;;;;;5109761;28;20453;-67
2022/01/28 09:51:13;;;;;;;1.10;0.90;;;5.20;98.00;;;;;;5107327;28;20463;-68
2022/01/28 09:53:40;;;;;;;1.10;0.90;;;5.10;98.00;;;;;;5087529;28;20490;-68
2022/01/28 09:56:07;;;;;;;1.20;1.10;;;5.20;98.00;;;;;;5109333;28;20925;-68
2022/01/28 09:58:36;;;;;;;1.83;1.20;;;5.30;98.00;;;;;;5109478;28;20487;-68
2022/01/28 10:01:04;;;;;;;1.20;1.10;;;5.30;98.00;;;;;;5085313;28;20457;-68
2022/01/28 10:03:35;;;;;;;1.10;1.10;;;5.30;98.00;;;;;;5082359;28;20457;-68
2022/01/28 10:06:04;;;;;;;1.10;1.00;;;5.40;98.00;;;;;;5088138;28;20520;-68
2022/01/28 10:08:32;;;;;;;1.10;0.90;;;5.50;98.00;;;;;;5089103;28;20517;-67
2022/01/28 10:11:06;;;;;;;1.30;1.27;;;5.50;98.00;;;;;;5095099;28;20456;-67
2022/01/28 10:13:38;;;;;;;1.10;1.00;;;5.50;98.00;;;;;;5092722;28;20459;-68
2022/01/28 10:16:11;;;;;;;2.90;2.57;;;5.70;98.00;;;;;;5083937;28;20590;-67
2022/01/28 10:18:51;;;;;;;1.10;1.00;;;5.70;98.00;;;;;;5094049;28;20882;-68
2022/01/28 10:21:36;;;;;;;1.40;1.17;;;5.90;98.00;;;;;;5086698;28;21268;-69
2022/01/28 10:24:15;;;;;;;1.10;1.00;;;6.10;98.00;;;;;;5080389;28;20593;-67
2022/01/28 10:26:45;;;;;;;2.23;1.20;;;6.10;98.00;;;;;;5072932;28;20549;-68
2022/01/28 10:29:14;;;;;;;1.10;1.00;;;6.20;98.00;;;;;;5105049;28;20473;-68
2022/01/28 10:31:44;;;;;;;1.17;1.10;;;6.20;98.00;;;;;;5112925;28;20964;-68
2022/01/28 10:34:30;;;;;;;1.17;1.00;;;6.20;98.00;;;;;;5111873;28;20460;-67
2022/01/28 10:37:14;;;;;;;1.13;1.00;;;6.30;98.00;;;;;;5111757;28;20508;-67
2022/01/28 10:39:47;;;;;;;2.43;1.27;;;6.30;98.00;;;;;;5099342;28;21312;-68
2022/01/28 10:42:18;;;;;;;2.33;1.40;;;6.30;98.00;;;;;;5112375;28;20555;-67
2022/01/28 10:44:57;;;;;;;1.10;1.00;;;6.30;98.00;;;;;;5112761;28;20448;-67
2022/01/28 10:47:36;;;;;;;1.10;0.90;;;6.40;98.00;;;;;;5112376;28;20571;-68
2022/01/28 10:50:22;;;;;;;1.60;1.20;;;6.40;98.00;;;;;;5110288;28;20596;-68
2022/01/28 10:53:00;;;;;;;1.93;1.73;;;6.40;98.00;;;;;;5112255;28;20515;-68
2022/01/28 10:55:29;;;;;;;1.13;1.00;;;6.40;98.00;;;;;;5112159;28;20538;-68
2022/01/28 10:57:58;;;;;;;1.60;1.40;;;6.50;98.00;;;;;;5112541;28;20875;-68
2022/01/28 11:00:28;;;;;;;1.20;1.10;;;6.50;98.00;;;;;;5111801;28;21034;-67
2022/01/28 11:02:57;;;;;;;1.20;1.10;;;6.70;98.00;;;;;;5112269;28;20551;-67
2022/01/28 11:05:24;;;;;;;1.20;1.10;;;6.60;98.00;;;;;;5112202;28;20874;-67
2022/01/28 11:07:52;;;;;;;1.30;1.13;;;6.60;98.00;;;;;;5112484;28;20545;-67
2022/01/28 11:10:21;;;;;;;1.73;1.10;;;6.60;98.00;;;;;;5094360;28;20487;-67
2022/01/28 11:12:49;;;;;;;1.10;1.00;;;6.60;98.00;;;;;;5112396;28;20865;-67
2022/01/28 11:15:17;;;;;;;1.20;1.00;;;6.60;98.00;;;;;;5112374;28;20493;-67
2022/01/28 11:17:44;;;;;;;1.20;1.00;;;6.60;98.00;;;;;;5112023;28;20538;-67
2022/01/28 11:20:13;;;;;;;1.10;1.00;;;6.70;98.00;;;;;;5112413;28;20476;-68
2022/01/28 11:22:53;;;;;;;1.83;1.43;;;6.70;98.00;;;;;;5112052;28;20513;-68
2022/01/28 11:25:35;;;;;;;1.20;1.13;;;6.70;98.00;;;;;;5097296;28;20542;-67
2022/01/28 11:28:08;;;;;;;1.17;1.00;;;6.80;98.00;;;;;;5111190;28;20452;-67
2022/01/28 11:30:44;;;;;;;1.50;1.30;;;6.80;98.00;;;;;;5111992;28;20548;-68
2022/01/28 11:33:12;;;;;;;1.13;1.00;;;6.80;98.00;;;;;;5095199;28;21010;-67
2022/01/28 11:35:41;;;;;;;1.20;1.00;;;6.80;98.00;;;;;;5111697;28;20459;-67
2022/01/28 11:38:50;;;;;;;1.20;1.00;;;6.70;98.00;;;;;;5111312;28;20483;-67
2022/01/28 11:41:25;;;;;;;1.20;1.00;;;6.70;98.00;;;;;;5075112;28;20973;-67
2022/01/28 11:43:55;;;;;;;1.30;1.30;;;6.70;98.00;;;;;;5111537;28;20560;-67
2022/01/28 11:46:24;;;;;;;1.17;1.00;;;6.60;98.00;;;;;;5110943;28;20582;-68
2022/01/28 11:49:19;;;;;;;1.13;0.90;;;6.50;98.00;;;;;;5111295;28;20572;-67
2022/01/28 11:51:46;;;;;;;1.27;1.20;;;6.50;98.00;;;;;;5111251;28;20972;-67
2022/01/28 11:54:15;;;;;;;1.17;1.00;;;6.40;98.00;;;;;;5111309;28;21033;-67
2022/01/28 11:57:28;;;;;;;1.20;1.00;;;6.40;98.00;;;;;;5110998;28;20957;-67
2022/01/28 12:00:19;;;;;;;1.20;0.90;;;6.40;98.00;;;;;;5096682;28;20516;-66
2022/01/28 12:02:50;;;;;;;1.20;1.00;;;6.50;98.00;;;;;;5099659;28;20862;-67
2022/01/28 12:05:49;;;;;;;1.10;0.90;;;6.60;98.00;;;;;;5110756;28;20539;-67
2022/01/28 12:08:18;;;;;;;1.20;1.00;;;6.60;98.00;;;;;;5110739;28;20508;-69
2022/01/28 12:10:49;;;;;;;1.20;0.97;;;6.60;98.00;;;;;;5111565;28;20559;-67
2022/01/28 12:13:31;;;;;;;1.20;1.10;;;6.70;98.00;;;;;;5111252;28;20957;-68
2022/01/28 12:16:10;;;;;;;1.30;1.13;;;6.70;98.00;;;;;;5096247;28;20957;-67
2022/01/28 12:18:55;;;;;;;1.20;1.00;;;6.70;98.00;;;;;;5110925;28;20451;-67
2022/01/28 12:21:26;;;;;;;1.20;1.00;;;6.40;98.00;;;;;;5110776;28;20460;-67
2022/01/28 12:23:55;;;;;;;1.20;0.90;;;6.20;98.00;;;;;;5110799;28;20460;-67
2022/01/28 12:26:23;;;;;;;1.20;1.00;;;6.20;98.00;;;;;;5092414;28;20488;-68
2022/01/28 12:28:56;;;;;;;1.13;1.00;;;6.00;98.00;;;;;;5110130;28;20496;-68
2022/01/28 12:31:30;;;;;;;1.17;1.00;;;6.10;98.00;;;;;;5110516;28;20524;-67
2022/01/28 12:33:58;;;;;;;1.50;1.37;;;6.20;98.00;;;;;;5110764;28;20550;-69
2022/01/28 12:36:29;;;;;;;1.20;0.93;;;6.50;98.00;;;;;;5110469;28;20483;-67
2022/01/28 12:41:51;;;;;;;1.20;1.00;;;7.70;98.00;;;;;;5108682;28;20459;-66
2022/01/28 12:44:20;;;;;;;1.20;1.10;;;7.80;98.00;;;;;;5094568;28;20448;-67
2022/01/28 12:46:55;;;;;;;1.20;1.00;;;7.80;98.00;;;;;;5110199;28;21031;-68
2022/01/28 12:49:25;;;;;;;1.20;1.00;;;8.10;98.00;;;;;;5109387;28;20459;-67
2022/01/28 12:51:56;;;;;;;1.20;1.00;;;8.60;98.00;;;;;;5110259;28;20501;-69
2022/01/28 12:54:31;;;;;;;1.23;1.10;;;9.10;98.00;;;;;;5110578;28;20458;-67
2022/01/28 12:56:59;;;;;;;1.60;1.10;;;9.40;98.00;;;;;;5110165;28;20508;-68
2022/01/28 12:59:27;;;;;;;1.30;1.20;;;9.80;98.00;;;;;;5110348;28;20972;-68
2022/01/28 13:01:55;;;;;;;1.20;1.00;;;9.80;98.00;;;;;;5110126;28;20457;-66
2022/01/28 13:04:35;;;;;;;4.03;3.73;;;9.80;98.00;;;;;;5109659;28;20554;-66
2022/01/28 13:08:24;;;;;;;1.20;1.00;;;9.60;98.00;;;;;;5102813;28;20522;-69
2022/01/28 13:09:51;;;;;;;1.20;1.00;;;8.80;98.00;;;;;;5103847;28;20983;-68
2022/01/28 13:12:23;;;;;;;1.20;1.00;;;8.40;98.00;;;;;;5109385;28;20478;-66
2022/01/28 13:14:52;;;;;;;1.20;1.00;;;7.90;98.00;;;;;;5110075;28;20456;-69
2022/01/28 13:17:21;;;;;;;1.30;1.27;;;7.60;98.00;;;;;;5091885;28;20451;-68
2022/01/28 13:19:56;;;;;;;1.20;1.10;;;7.30;98.00;;;;;;5109805;28;20556;-68
2022/01/28 13:22:25;;;;;;;1.30;1.20;;;7.50;98.00;;;;;;5109227;28;20888;-68
2022/01/28 13:24:52;;;;;;;1.20;1.00;;;7.80;98.00;;;;;;5109934;28;20906;-68
2022/01/28 13:27:21;;;;;;;1.20;1.00;;;7.90;98.00;;;;;;5109116;28;20552;-69
2022/01/28 13:29:52;;;;;;;1.57;1.20;;;8.00;98.00;;;;;;5110038;28;20466;-67
2022/01/28 13:32:24;;;;;;;1.20;1.00;;;8.00;98.00;;;;;;5111686;28;20942;-68
2022/01/28 13:34:53;;;;;;;4.47;2.23;;;8.00;98.00;;;;;;5112196;28;20501;-67
2022/01/28 13:37:37;;;;;;;1.20;1.00;;;8.30;98.00;;;;;;5112116;28;20451;-67
2022/01/28 13:40:07;;;;;;;2.03;1.20;;;8.20;98.00;;;;;;5094514;28;20459;-67
2022/01/28 13:42:35;;;;;;;1.20;0.97;;;8.00;98.00;;;;;;5112056;28;20490;-67
2022/01/28 13:45:05;;;;;;;1.20;1.00;;;7.80;98.00;;;;;;5111565;28;20454;-68
2022/01/28 13:47:53;;;;;;;1.20;1.00;;;7.30;98.00;;;;;;5111878;28;20483;-67
2022/01/28 13:50:25;;;;;;;1.20;1.00;;;7.20;98.00;;;;;;5112073;28;20508;-67
2022/01/28 13:53:21;;;;;;;1.50;1.30;;;7.20;98.00;;;;;;5111690;28;20555;-67
2022/01/28 13:55:49;;;;;;;1.20;1.10;;;7.20;98.00;;;;;;5110766;28;20481;-67
2022/01/28 13:58:17;;;;;;;1.20;1.00;;;7.10;98.00;;;;;;5094225;28;20452;-68
2022/01/28 14:00:47;;;;;;;2.67;1.63;;;7.10;98.00;;;;;;5112362;28;20475;-67
2022/01/28 14:03:19;;;;;;;1.20;1.00;;;6.90;98.00;;;;;;5112035;28;20483;-67